createdAt,value
2022-12-13T00:00:32.454Z,1010.38
2022-12-13T00:01:36.308Z,1010.40
2022-12-13T00:02:32.344Z,1010.38
2022-12-13T00:03:32.305Z,1010.46
2022-12-13T00:04:32.312Z,1010.41
2022-12-13T00:05:32.272Z,1010.48
2022-12-13T00:06:32.663Z,1010.34
2022-12-13T00:07:32.725Z,1010.40
2022-12-13T00:08:37.516Z,1010.39
2022-12-13T00:09:32.236Z,1010.49
2022-12-13T00:10:32.214Z,1010.42
2022-12-13T00:11:32.211Z,1010.41
2022-12-13T00:12:32.216Z,1010.37
2022-12-13T00:13:33.126Z,1010.35
2022-12-13T00:14:32.205Z,1010.44
2022-12-13T00:15:32.146Z,1010.37
2022-12-13T00:16:32.810Z,1010.35
2022-12-13T00:17:32.518Z,1010.34
2022-12-13T00:18:37.033Z,1010.34
2022-12-13T00:19:32.127Z,1010.42
2022-12-13T00:20:32.095Z,1010.42
2022-12-13T00:21:32.083Z,1010.39
2022-12-13T00:22:32.075Z,1010.37
2022-12-13T00:23:32.055Z,1010.37
2022-12-13T00:24:32.176Z,1010.30
2022-12-13T00:25:32.036Z,1010.27
2022-12-13T00:26:32.025Z,1010.43
2022-12-13T00:27:36.166Z,1010.42
2022-12-13T00:28:36.068Z,1010.24
2022-12-13T00:29:31.986Z,1010.25
2022-12-13T00:30:32.158Z,1010.34
2022-12-13T00:32:32.948Z,1010.39
2022-12-13T00:33:31.937Z,1010.36
2022-12-13T00:34:31.949Z,1010.23
2022-12-13T00:35:32.188Z,1010.36
2022-12-13T00:36:31.957Z,1010.23
2022-12-13T00:37:31.914Z,1010.27
2022-12-13T00:38:31.877Z,1010.15
2022-12-13T00:39:35.782Z,1010.26
2022-12-13T00:40:31.859Z,1010.20
2022-12-13T00:41:31.838Z,1010.27
2022-12-13T00:42:31.862Z,1010.22
2022-12-13T00:43:31.811Z,1010.18
2022-12-13T00:44:31.803Z,1010.17
2022-12-13T00:45:31.824Z,1010.27
2022-12-13T00:46:31.817Z,1010.19
2022-12-13T00:47:31.762Z,1010.23
2022-12-13T00:48:31.780Z,1010.16
2022-12-13T00:49:32.699Z,1010.12
2022-12-13T00:50:31.729Z,1010.11
2022-12-13T00:51:32.678Z,1010.09
2022-12-13T00:52:31.731Z,1010.11
2022-12-13T00:53:32.110Z,1010.21
2022-12-13T00:54:32.123Z,1010.10
2022-12-13T00:55:31.673Z,1010.23
2022-12-13T00:56:31.661Z,1010.14
2022-12-13T00:57:32.125Z,1010.11
2022-12-13T00:58:31.643Z,1010.17
2022-12-13T00:59:31.624Z,1010.12
2022-12-13T01:00:31.683Z,1010.15
2022-12-13T01:01:31.652Z,1010.15
2022-12-13T01:02:31.612Z,1010.14
2022-12-13T01:03:31.640Z,1010.17
2022-12-13T01:04:31.584Z,1010.14
2022-12-13T01:06:12.532Z,1010.14
2022-12-13T01:06:32.663Z,1010.09
2022-12-13T01:07:31.533Z,1010.08
2022-12-13T01:08:31.545Z,1010.12
2022-12-13T01:09:31.504Z,1010.11
2022-12-13T01:10:31.503Z,1010.06
2022-12-13T01:11:31.464Z,1010.16
2022-12-13T01:12:31.504Z,1010.05
2022-12-13T01:13:31.454Z,1010.18
2022-12-13T01:14:31.444Z,1010.12
2022-12-13T01:15:31.425Z,1010.18
2022-12-13T01:16:32.337Z,1010.08
2022-12-13T01:17:31.405Z,1010.17
2022-12-13T01:18:31.426Z,1010.11
2022-12-13T01:19:31.435Z,1010.13
2022-12-13T01:20:31.375Z,1010.11
2022-12-13T01:21:31.369Z,1010.12
2022-12-13T01:22:31.346Z,1010.07
2022-12-13T01:23:31.796Z,1010.10
2022-12-13T01:24:31.413Z,1010.17
2022-12-13T01:25:31.301Z,1010.07
2022-12-13T01:26:31.285Z,1010.11
2022-12-13T01:27:31.264Z,1010.07
2022-12-13T01:28:32.089Z,1010.10
2022-12-13T01:29:31.236Z,1010.14
2022-12-13T01:30:31.402Z,1010.20
2022-12-13T01:31:31.275Z,1010.13
2022-12-13T01:32:31.256Z,1010.10
2022-12-13T01:33:31.198Z,1010.09
2022-12-13T01:34:31.191Z,1010.09
2022-12-13T01:35:31.237Z,1010.16
2022-12-13T01:36:31.196Z,1010.15
2022-12-13T01:37:31.174Z,1010.22
2022-12-13T01:38:32.140Z,1010.16
2022-12-13T01:39:32.129Z,1010.09
2022-12-13T01:40:32.116Z,1010.13
2022-12-13T01:41:32.136Z,1010.13
2022-12-13T01:42:31.107Z,1010.09
2022-12-13T01:43:31.078Z,1010.08
2022-12-13T01:44:31.065Z,1010.09
2022-12-13T01:45:31.058Z,1010.04
2022-12-13T01:46:31.109Z,1010.11
2022-12-13T01:47:31.152Z,1010.06
2022-12-13T01:48:31.029Z,1010.09
2022-12-13T01:49:31.001Z,1010.12
2022-12-13T01:50:30.998Z,1010.12
2022-12-13T01:51:30.991Z,1010.08
2022-12-13T01:52:30.960Z,1010.10
2022-12-13T01:53:31.069Z,1010.10
2022-12-13T01:54:34.181Z,1010.12
2022-12-13T01:55:30.919Z,1010.05
2022-12-13T01:56:31.032Z,1010.13
2022-12-13T01:57:31.743Z,1010.17
2022-12-13T01:58:30.901Z,1010.12
2022-12-13T01:59:30.943Z,1010.14
2022-12-13T02:00:30.880Z,1010.12
2022-12-13T02:01:31.352Z,1010.17
2022-12-13T02:02:30.860Z,1010.07
2022-12-13T02:03:30.841Z,1010.05
2022-12-13T02:04:30.826Z,1010.03
2022-12-13T02:05:30.887Z,1010.09
2022-12-13T02:06:31.763Z,1010.06
2022-12-13T02:07:30.792Z,1010.01
2022-12-13T02:08:30.814Z,1010.14
2022-12-13T02:09:31.778Z,1010.08
2022-12-13T02:10:30.758Z,1010.06
2022-12-13T02:11:31.402Z,1010.08
2022-12-13T02:12:31.682Z,1010.12
2022-12-13T02:13:30.715Z,1010.10
2022-12-13T02:14:30.703Z,1010.05
2022-12-13T02:15:30.746Z,1010.07
2022-12-13T02:16:30.683Z,1010.08
2022-12-13T02:17:30.784Z,1010.05
2022-12-13T02:18:30.653Z,1010.12
2022-12-13T02:19:30.633Z,1010.14
2022-12-13T02:20:30.646Z,1010.05
2022-12-13T02:21:30.615Z,1010.08
2022-12-13T02:22:30.623Z,1010.14
2022-12-13T02:23:30.634Z,1010.09
2022-12-13T02:24:30.584Z,1010.08
2022-12-13T02:25:30.579Z,1010.02
2022-12-13T02:26:30.559Z,1010.01
2022-12-13T02:27:31.137Z,1010.03
2022-12-13T02:28:32.273Z,1010.07
2022-12-13T02:29:31.524Z,1010.02
2022-12-13T02:30:30.524Z,1010.06
2022-12-13T02:31:30.522Z,1010.08
2022-12-13T02:32:30.507Z,1010.05
2022-12-13T02:33:30.765Z,1010.09
2022-12-13T02:34:30.476Z,1010.02
2022-12-13T02:35:30.468Z,1010.02
2022-12-13T02:36:36.395Z,1010.01
2022-12-13T02:37:31.467Z,1010.11
2022-12-13T02:38:31.058Z,1010.05
2022-12-13T02:39:31.046Z,1010.06
2022-12-13T02:40:30.398Z,1010.06
2022-12-13T02:41:30.501Z,1010.05
2022-12-13T02:42:31.318Z,1009.99
2022-12-13T02:43:33.737Z,1009.98
2022-12-13T02:44:30.351Z,1009.98
2022-12-13T02:45:30.330Z,1010.00
2022-12-13T02:46:30.352Z,1010.08
2022-12-13T02:47:30.308Z,1009.98
2022-12-13T02:48:31.260Z,1009.99
2022-12-13T02:49:30.278Z,1010.04
2022-12-13T02:50:31.229Z,1009.96
2022-12-13T02:51:30.249Z,1010.06
2022-12-13T02:52:30.277Z,1010.01
2022-12-13T02:53:30.230Z,1010.01
2022-12-13T02:54:30.590Z,1010.02
2022-12-13T02:55:30.247Z,1009.94
2022-12-13T02:56:30.197Z,1009.98
2022-12-13T02:57:30.179Z,1010.07
2022-12-13T02:58:30.211Z,1010.10
2022-12-13T02:59:30.431Z,1010.05
2022-12-13T03:00:30.151Z,1010.03
2022-12-13T03:01:30.207Z,1009.98
2022-12-13T03:02:31.543Z,1010.09
2022-12-13T03:03:30.254Z,1010.11
2022-12-13T03:04:30.213Z,1010.04
2022-12-13T03:05:30.099Z,1010.05
2022-12-13T03:06:33.427Z,1009.97
2022-12-13T03:07:30.072Z,1010.08
2022-12-13T03:08:30.150Z,1010.03
2022-12-13T03:09:30.063Z,1010.07
2022-12-13T03:10:30.571Z,1010.05
2022-12-13T03:11:30.059Z,1010.01
2022-12-13T03:12:30.022Z,1010.08
2022-12-13T03:13:30.055Z,1010.03
2022-12-13T03:14:31.818Z,1009.98
2022-12-13T03:15:30.112Z,1009.92
2022-12-13T03:16:30.184Z,1009.99
2022-12-13T03:17:29.942Z,1009.95
2022-12-13T03:18:30.754Z,1010.04
2022-12-13T03:19:29.962Z,1010.05
2022-12-13T03:20:30.865Z,1010.02
2022-12-13T03:21:29.904Z,1010.06
2022-12-13T03:22:30.003Z,1010.13
2022-12-13T03:23:29.874Z,1010.13
2022-12-13T03:24:29.847Z,1010.05
2022-12-13T03:25:30.766Z,1010.09
2022-12-13T03:26:29.884Z,1010.13
2022-12-13T03:27:33.736Z,1010.06
2022-12-13T03:28:29.814Z,1010.06
2022-12-13T03:29:29.807Z,1010.11
2022-12-13T03:30:29.786Z,1010.17
2022-12-13T03:31:29.834Z,1010.10
2022-12-13T03:32:29.773Z,1010.03
2022-12-13T03:33:29.798Z,1010.09
2022-12-13T03:34:44.832Z,1010.08
2022-12-13T03:35:34.249Z,1010.04
2022-12-13T03:36:30.345Z,1010.12
2022-12-13T03:37:29.716Z,1010.04
2022-12-13T03:38:29.698Z,1009.95
2022-12-13T03:39:29.726Z,1009.97
2022-12-13T03:40:29.690Z,1010.01
2022-12-13T03:41:29.692Z,1010.02
2022-12-13T03:42:29.648Z,1010.01
2022-12-13T03:43:29.644Z,1010.00
2022-12-13T03:44:31.389Z,1010.03
2022-12-13T03:45:29.637Z,1010.02
2022-12-13T03:46:29.640Z,1010.00
2022-12-13T03:47:29.596Z,1009.94
2022-12-13T03:48:29.829Z,1009.94
2022-12-13T03:49:34.977Z,1009.97
2022-12-13T03:50:30.571Z,1010.00
2022-12-13T03:51:29.541Z,1009.95
2022-12-13T03:52:29.520Z,1009.96
2022-12-13T03:53:32.315Z,1010.00
2022-12-13T03:54:29.501Z,1009.93
2022-12-13T03:55:29.500Z,1009.97
2022-12-13T03:56:29.609Z,1010.00
2022-12-13T03:57:29.486Z,1010.02
2022-12-13T03:58:34.954Z,1010.04
2022-12-13T03:59:30.448Z,1009.97
2022-12-13T04:00:29.441Z,1009.93
2022-12-13T04:01:29.459Z,1009.99
2022-12-13T04:02:30.712Z,1010.00
2022-12-13T04:03:29.455Z,1009.92
2022-12-13T04:04:29.379Z,1009.91
2022-12-13T04:05:29.500Z,1009.94
2022-12-13T04:06:32.955Z,1009.93
2022-12-13T04:07:34.497Z,1009.92
2022-12-13T04:08:30.416Z,1010.04
2022-12-13T04:09:34.051Z,1009.93
2022-12-13T04:10:29.319Z,1009.98
2022-12-13T04:11:29.292Z,1009.89
2022-12-13T04:12:29.283Z,1009.99
2022-12-13T04:13:29.271Z,1009.92
2022-12-13T04:14:29.773Z,1009.89
2022-12-13T04:15:29.265Z,1009.91
2022-12-13T04:16:29.266Z,1009.87
2022-12-13T04:17:29.234Z,1009.97
2022-12-13T04:18:29.213Z,1009.92
2022-12-13T04:19:29.198Z,1009.96
2022-12-13T04:20:29.225Z,1009.97
2022-12-13T04:21:29.216Z,1009.95
2022-12-13T04:22:29.157Z,1009.89
2022-12-13T04:23:29.158Z,1009.88
2022-12-13T04:24:31.986Z,1009.84
2022-12-13T04:25:29.199Z,1009.94
2022-12-13T04:26:29.144Z,1009.90
2022-12-13T04:27:29.405Z,1009.87
2022-12-13T04:28:29.090Z,1009.87
2022-12-13T04:29:34.285Z,1009.85
2022-12-13T04:30:31.012Z,1009.87
2022-12-13T04:31:29.071Z,1009.80
2022-12-13T04:32:30.358Z,1009.89
2022-12-13T04:33:29.036Z,1009.82
2022-12-13T04:34:35.041Z,1009.83
2022-12-13T04:35:30.019Z,1009.85
2022-12-13T04:36:32.181Z,1009.81
2022-12-13T04:37:32.897Z,1009.88
2022-12-13T04:38:28.988Z,1009.92
2022-12-13T04:39:33.896Z,1009.86
2022-12-13T04:40:30.880Z,1009.86
2022-12-13T04:41:34.526Z,1009.87
2022-12-13T04:42:29.921Z,1009.86
2022-12-13T04:43:28.910Z,1009.89
2022-12-13T04:44:33.747Z,1009.83
2022-12-13T04:45:33.696Z,1009.84
2022-12-13T04:46:29.180Z,1009.80
2022-12-13T04:47:28.872Z,1009.87
2022-12-13T04:48:30.938Z,1009.95
2022-12-13T04:49:28.840Z,1009.94
2022-12-13T04:50:28.860Z,1009.89
2022-12-13T04:51:29.959Z,1009.97
2022-12-13T04:52:28.804Z,1009.88
2022-12-13T04:53:28.789Z,1009.93
2022-12-13T04:54:28.768Z,1009.99
2022-12-13T04:55:30.440Z,1009.88
2022-12-13T04:56:28.753Z,1009.89
2022-12-13T04:57:28.739Z,1009.88
2022-12-13T04:58:29.682Z,1009.86
2022-12-13T04:59:28.773Z,1009.92
2022-12-13T05:00:28.971Z,1009.89
2022-12-13T05:01:28.764Z,1009.93
2022-12-13T05:02:28.719Z,1009.84
2022-12-13T05:03:28.672Z,1009.92
2022-12-13T05:04:32.964Z,1009.85
2022-12-13T05:05:28.926Z,1009.88
2022-12-13T05:06:28.631Z,1009.85
2022-12-13T05:07:32.633Z,1009.88
2022-12-13T05:08:32.521Z,1009.87
2022-12-13T05:09:28.644Z,1009.82
2022-12-13T05:10:34.099Z,1009.77
2022-12-13T05:11:35.550Z,1009.79
2022-12-13T05:12:29.584Z,1009.77
2022-12-13T05:13:28.574Z,1009.78
2022-12-13T05:14:28.533Z,1009.77
2022-12-13T05:15:29.343Z,1009.81
2022-12-13T05:16:28.541Z,1009.75
2022-12-13T05:17:30.949Z,1009.75
2022-12-13T05:18:28.534Z,1009.81
2022-12-13T05:19:31.004Z,1009.74
2022-12-13T05:20:28.475Z,1009.79
2022-12-13T05:21:28.455Z,1009.75
2022-12-13T05:22:28.433Z,1009.75
2022-12-13T05:23:28.432Z,1009.78
2022-12-13T05:24:29.429Z,1009.75
2022-12-13T05:25:28.746Z,1009.66
2022-12-13T05:26:28.403Z,1009.78
2022-12-13T05:27:28.396Z,1009.69
2022-12-13T05:28:29.082Z,1009.69
2022-12-13T05:29:28.479Z,1009.72
2022-12-13T05:30:28.535Z,1009.63
2022-12-13T05:31:28.378Z,1009.61
2022-12-13T05:32:28.328Z,1009.70
2022-12-13T05:33:32.386Z,1009.59
2022-12-13T05:34:28.465Z,1009.67
2022-12-13T05:35:28.397Z,1009.62
2022-12-13T05:36:28.476Z,1009.74
2022-12-13T05:37:29.227Z,1009.68
2022-12-13T05:38:29.987Z,1009.65
2022-12-13T05:39:30.177Z,1009.61
2022-12-13T05:40:32.228Z,1009.59
2022-12-13T05:41:29.717Z,1009.62
2022-12-13T05:42:28.233Z,1009.58
2022-12-13T05:43:42.209Z,1009.65
2022-12-13T05:44:29.187Z,1009.66
2022-12-13T05:45:28.201Z,1009.63
2022-12-13T05:46:28.186Z,1009.61
2022-12-13T05:47:28.147Z,1009.59
2022-12-13T05:48:28.268Z,1009.59
2022-12-13T05:49:28.292Z,1009.60
2022-12-13T05:50:28.180Z,1009.70
2022-12-13T05:51:28.167Z,1009.61
2022-12-13T05:52:30.538Z,1009.55
2022-12-13T05:53:30.906Z,1009.61
2022-12-13T05:54:28.410Z,1009.57
2022-12-13T05:55:28.192Z,1009.71
2022-12-13T05:56:28.441Z,1009.59
2022-12-13T05:57:28.244Z,1009.65
2022-12-13T05:58:28.000Z,1009.59
2022-12-13T05:59:29.129Z,1009.70
2022-12-13T06:00:28.776Z,1009.61
2022-12-13T06:01:27.981Z,1009.67
2022-12-13T06:02:28.166Z,1009.71
2022-12-13T06:03:28.120Z,1009.61
2022-12-13T06:04:27.951Z,1009.60
2022-12-13T06:05:27.983Z,1009.61
2022-12-13T06:06:27.932Z,1009.61
2022-12-13T06:07:27.920Z,1009.59
2022-12-13T06:08:27.950Z,1009.57
2022-12-13T06:09:27.880Z,1009.65
2022-12-13T06:10:34.603Z,1009.68
2022-12-13T06:11:31.664Z,1009.61
2022-12-13T06:12:31.693Z,1009.63
2022-12-13T06:13:31.944Z,1009.61
2022-12-13T06:14:27.823Z,1009.64
2022-12-13T06:15:27.984Z,1009.65
2022-12-13T06:16:32.896Z,1009.78
2022-12-13T06:17:28.423Z,1009.74
2022-12-13T06:18:28.423Z,1009.74
2022-12-13T06:19:27.812Z,1009.77
2022-12-13T06:20:31.715Z,1009.66
2022-12-13T06:21:27.744Z,1009.74
2022-12-13T06:22:27.714Z,1009.90
2022-12-13T06:23:27.766Z,1009.76
2022-12-13T06:24:28.470Z,1009.72
2022-12-13T06:25:31.106Z,1009.70
2022-12-13T06:26:27.675Z,1009.80
2022-12-13T06:27:27.676Z,1009.77
2022-12-13T06:28:28.306Z,1009.72
2022-12-13T06:29:27.800Z,1009.81
2022-12-13T06:30:28.111Z,1009.76
2022-12-13T06:31:28.415Z,1009.70
2022-12-13T06:32:27.798Z,1009.70
2022-12-13T06:33:27.856Z,1009.69
2022-12-13T06:34:27.588Z,1009.62
2022-12-13T06:35:29.871Z,1009.59
2022-12-13T06:36:27.619Z,1009.57
2022-12-13T06:37:27.646Z,1009.67
2022-12-13T06:38:32.122Z,1009.75
2022-12-13T06:39:32.356Z,1009.62
2022-12-13T06:40:29.245Z,1009.64
2022-12-13T06:41:32.076Z,1009.62
2022-12-13T06:42:27.783Z,1009.53
2022-12-13T06:43:27.817Z,1009.68
2022-12-13T06:44:27.862Z,1009.60
2022-12-13T06:45:27.915Z,1009.69
2022-12-13T06:46:27.527Z,1009.67
2022-12-13T06:47:31.209Z,1009.61
2022-12-13T06:48:27.529Z,1009.59
2022-12-13T06:49:27.409Z,1009.70
2022-12-13T06:50:28.413Z,1009.67
2022-12-13T06:51:32.395Z,1009.74
2022-12-13T06:52:28.398Z,1009.74
2022-12-13T06:53:27.893Z,1009.75
2022-12-13T06:54:28.160Z,1009.79
2022-12-13T06:55:27.408Z,1009.77
2022-12-13T06:56:28.224Z,1009.71
2022-12-13T06:57:27.340Z,1009.76
2022-12-13T06:58:31.138Z,1009.71
2022-12-13T06:59:27.902Z,1009.81
2022-12-13T07:00:36.897Z,1009.76
2022-12-13T07:01:28.405Z,1009.78
2022-12-13T07:02:28.500Z,1009.74
2022-12-13T07:03:27.892Z,1009.79
2022-12-13T07:04:30.506Z,1009.76
2022-12-13T07:05:27.218Z,1009.71
2022-12-13T07:06:28.040Z,1009.81
2022-12-13T07:07:27.736Z,1009.75
2022-12-13T07:08:28.049Z,1009.85
2022-12-13T07:09:27.992Z,1009.84
2022-12-13T07:10:27.941Z,1009.73
2022-12-13T07:11:27.942Z,1009.78
2022-12-13T07:12:27.973Z,1009.73
2022-12-13T07:13:28.003Z,1009.79
2022-12-13T07:14:27.871Z,1009.75
2022-12-13T07:15:27.135Z,1009.74
2022-12-13T07:16:27.663Z,1009.77
2022-12-13T07:17:32.716Z,1009.70
2022-12-13T07:18:28.375Z,1009.67
2022-12-13T07:19:27.884Z,1009.72
2022-12-13T07:20:28.499Z,1009.73
2022-12-13T07:21:27.316Z,1009.73
2022-12-13T07:22:27.363Z,1009.76
2022-12-13T07:23:27.325Z,1009.76
2022-12-13T07:24:27.374Z,1009.84
2022-12-13T07:25:29.538Z,1009.79
2022-12-13T07:26:27.824Z,1009.84
2022-12-13T07:27:27.025Z,1009.70
2022-12-13T07:28:26.935Z,1009.83
2022-12-13T07:29:26.959Z,1009.74
2022-12-13T07:30:26.925Z,1009.73
2022-12-13T07:31:27.928Z,1009.79
2022-12-13T07:32:26.935Z,1009.80
2022-12-13T07:33:27.028Z,1009.81
2022-12-13T07:34:27.054Z,1009.79
2022-12-13T07:35:27.852Z,1009.83
2022-12-13T07:36:27.067Z,1009.80
2022-12-13T07:37:30.686Z,1009.81
2022-12-13T07:38:26.946Z,1009.76
2022-12-13T07:39:27.763Z,1009.72
2022-12-13T07:40:27.760Z,1009.77
2022-12-13T07:41:27.239Z,1009.79
2022-12-13T07:42:26.776Z,1009.67
2022-12-13T07:43:27.008Z,1009.76
2022-12-13T07:44:27.010Z,1009.67
2022-12-13T07:45:27.688Z,1009.75
2022-12-13T07:46:32.505Z,1009.75
2022-12-13T07:47:28.011Z,1009.75
2022-12-13T07:48:26.701Z,1009.77
2022-12-13T07:49:27.128Z,1009.75
2022-12-13T07:50:27.667Z,1009.73
2022-12-13T07:51:28.350Z,1009.72
2022-12-13T07:52:26.680Z,1009.76
2022-12-13T07:53:26.771Z,1009.78
2022-12-13T07:54:26.859Z,1009.74
2022-12-13T07:55:33.453Z,1009.78
2022-12-13T07:56:28.290Z,1009.74
2022-12-13T07:57:26.657Z,1009.75
2022-12-13T07:58:26.693Z,1009.81
2022-12-13T07:59:28.698Z,1009.74
2022-12-13T08:00:27.529Z,1009.70
2022-12-13T08:01:27.096Z,1009.69
2022-12-13T08:02:27.361Z,1009.83
2022-12-13T08:03:26.997Z,1009.77
2022-12-13T08:04:26.657Z,1009.68
2022-12-13T08:05:27.517Z,1009.74
2022-12-13T08:06:26.768Z,1009.66
2022-12-13T08:07:26.754Z,1009.75
2022-12-13T08:08:30.821Z,1009.77
2022-12-13T08:09:27.253Z,1009.71
2022-12-13T08:10:27.164Z,1009.79
2022-12-13T08:11:27.206Z,1009.72
2022-12-13T08:12:26.718Z,1009.83
2022-12-13T08:13:30.851Z,1009.80
2022-12-13T08:14:27.244Z,1009.77
2022-12-13T08:15:26.542Z,1009.82
2022-12-13T08:16:29.312Z,1009.76
2022-12-13T08:17:26.430Z,1009.75
2022-12-13T08:18:26.334Z,1009.85
2022-12-13T08:19:26.324Z,1009.84
2022-12-13T08:20:26.397Z,1009.74
2022-12-13T08:21:52.587Z,1009.74
2022-12-13T08:22:27.776Z,1009.76
2022-12-13T08:23:27.914Z,1009.79
2022-12-13T08:24:26.335Z,1009.70
2022-12-13T08:25:27.214Z,1009.78
2022-12-13T08:26:27.241Z,1009.76
2022-12-13T08:27:26.228Z,1009.68
2022-12-13T08:28:26.325Z,1009.77
2022-12-13T08:29:34.156Z,1009.71
2022-12-13T08:30:27.261Z,1009.73
2022-12-13T08:31:26.382Z,1009.76
2022-12-13T08:32:27.366Z,1009.67
2022-12-13T08:33:26.327Z,1009.73
2022-12-13T08:34:26.317Z,1009.64
2022-12-13T08:35:30.493Z,1009.65
2022-12-13T08:36:27.240Z,1009.61
2022-12-13T08:37:27.069Z,1009.68
2022-12-13T08:38:26.099Z,1009.74
2022-12-13T08:39:26.081Z,1009.76
2022-12-13T08:40:27.308Z,1009.79
2022-12-13T08:41:26.213Z,1009.70
2022-12-13T08:42:27.005Z,1009.67
2022-12-13T08:43:26.289Z,1009.61
2022-12-13T08:44:26.114Z,1009.73
2022-12-13T08:45:26.126Z,1009.66
2022-12-13T08:46:26.234Z,1009.78
2022-12-13T08:47:26.865Z,1009.69
2022-12-13T08:48:26.262Z,1009.70
2022-12-13T08:49:26.371Z,1009.73
2022-12-13T08:50:26.309Z,1009.79
2022-12-13T08:51:29.649Z,1009.83
2022-12-13T08:52:26.924Z,1009.77
2022-12-13T08:53:29.630Z,1009.81
2022-12-13T08:54:31.482Z,1009.81
2022-12-13T08:55:32.111Z,1009.74
2022-12-13T08:56:27.561Z,1009.76
2022-12-13T08:57:26.297Z,1009.74
2022-12-13T08:58:26.111Z,1009.72
2022-12-13T08:59:26.160Z,1009.77
2022-12-13T09:00:25.967Z,1009.67
2022-12-13T09:01:26.858Z,1009.73
2022-12-13T09:02:26.318Z,1009.74
2022-12-13T09:03:26.291Z,1009.81
2022-12-13T09:04:31.406Z,1009.82
2022-12-13T09:05:33.210Z,1009.75
2022-12-13T09:06:26.863Z,1009.77
2022-12-13T09:07:25.919Z,1009.91
2022-12-13T09:08:26.194Z,1009.80
2022-12-13T09:09:27.672Z,1009.81
2022-12-13T09:10:27.890Z,1009.88
2022-12-13T09:11:34.497Z,1009.88
2022-12-13T09:12:30.009Z,1009.90
2022-12-13T09:13:31.707Z,1009.93
2022-12-13T09:14:27.023Z,1009.85
2022-12-13T09:15:27.020Z,1009.95
2022-12-13T09:16:27.019Z,1009.89
2022-12-13T09:17:25.804Z,1009.97
2022-12-13T09:18:36.051Z,1009.95
2022-12-13T09:19:26.945Z,1009.93
2022-12-13T09:20:29.160Z,1010.02
2022-12-13T09:21:31.904Z,1009.97
2022-12-13T09:22:33.025Z,1010.01
2022-12-13T09:23:27.335Z,1010.02
2022-12-13T09:24:25.823Z,1010.04
2022-12-13T09:25:26.278Z,1010.01
2022-12-13T09:26:26.118Z,1010.06
2022-12-13T09:27:27.725Z,1010.08
2022-12-13T09:28:26.539Z,1010.04
2022-12-13T09:29:26.435Z,1010.15
2022-12-13T09:30:26.025Z,1010.07
2022-12-13T09:31:27.236Z,1010.11
2022-12-13T09:32:26.256Z,1010.08
2022-12-13T09:33:29.650Z,1010.08
2022-12-13T09:34:26.857Z,1010.08
2022-12-13T09:35:25.438Z,1010.06
2022-12-13T09:36:25.405Z,1010.05
2022-12-13T09:37:25.489Z,1010.05
2022-12-13T09:38:25.597Z,1010.11
2022-12-13T09:39:26.330Z,1010.04
2022-12-13T09:40:26.663Z,1010.10
2022-12-13T09:41:28.298Z,1010.13
2022-12-13T09:42:30.523Z,1009.99
2022-12-13T09:43:32.118Z,1010.03
2022-12-13T09:44:30.863Z,1010.13
2022-12-13T09:45:31.884Z,1010.24
2022-12-13T09:46:26.302Z,1010.22
2022-12-13T09:47:25.569Z,1010.21
2022-12-13T09:48:26.099Z,1010.19
2022-12-13T09:49:25.338Z,1010.19
2022-12-13T09:50:25.390Z,1010.19
2022-12-13T09:51:29.881Z,1010.27
2022-12-13T09:52:26.213Z,1010.23
2022-12-13T09:53:26.270Z,1010.19
2022-12-13T09:54:26.408Z,1010.14
2022-12-13T09:55:25.668Z,1010.10
2022-12-13T09:56:25.231Z,1010.14
2022-12-13T09:57:32.560Z,1010.08
2022-12-13T09:58:26.253Z,1010.07
2022-12-13T09:59:25.120Z,1010.13
2022-12-13T10:00:25.551Z,1010.20
2022-12-13T10:01:25.217Z,1010.16
2022-12-13T10:02:25.660Z,1010.15
2022-12-13T10:03:25.730Z,1010.18
2022-12-13T10:04:25.192Z,1010.10
2022-12-13T10:05:37.321Z,1010.16
2022-12-13T10:06:26.116Z,1010.10
2022-12-13T10:07:25.013Z,1010.07
2022-12-13T10:08:25.119Z,1009.96
2022-12-13T10:09:25.816Z,1010.05
2022-12-13T10:10:25.935Z,1009.94
2022-12-13T10:11:31.818Z,1009.97
2022-12-13T10:12:26.204Z,1009.97
2022-12-13T10:13:25.968Z,1009.98
2022-12-13T10:14:25.817Z,1010.04
2022-12-13T10:15:25.213Z,1009.96
2022-12-13T10:16:24.958Z,1009.96
2022-12-13T10:17:24.887Z,1010.00
2022-12-13T10:18:25.110Z,1009.88
2022-12-13T10:19:29.596Z,1009.92
2022-12-13T10:20:25.076Z,1009.88
2022-12-13T10:21:24.978Z,1009.87
2022-12-13T10:22:25.012Z,1009.85
2022-12-13T10:23:52.420Z,1009.78
2022-12-13T10:24:31.541Z,1009.77
2022-12-13T10:25:26.226Z,1009.72
2022-12-13T10:26:25.551Z,1009.71
2022-12-13T10:27:25.016Z,1009.74
2022-12-13T10:28:25.187Z,1009.77
2022-12-13T10:29:24.738Z,1009.70
2022-12-13T10:30:29.016Z,1009.70
2022-12-13T10:31:25.095Z,1009.72
2022-12-13T10:32:24.709Z,1009.65
2022-12-13T10:33:25.215Z,1009.62
2022-12-13T10:34:24.881Z,1009.66
2022-12-13T10:35:25.125Z,1009.62
2022-12-13T10:36:26.650Z,1009.67
2022-12-13T10:37:24.678Z,1009.61
2022-12-13T10:38:24.648Z,1009.64
2022-12-13T10:39:26.219Z,1009.68
2022-12-13T10:40:32.019Z,1009.62
2022-12-13T10:41:26.689Z,1009.62
2022-12-13T10:42:27.903Z,1009.55
2022-12-13T10:43:25.895Z,1009.61
2022-12-13T10:44:24.579Z,1009.65
2022-12-13T10:45:24.780Z,1009.53
2022-12-13T10:46:24.994Z,1009.49
2022-12-13T10:47:24.520Z,1009.49
2022-12-13T10:48:24.704Z,1009.42
2022-12-13T10:49:24.829Z,1009.41
2022-12-13T10:50:24.481Z,1009.38
2022-12-13T10:51:24.484Z,1009.37
2022-12-13T10:52:30.915Z,1009.34
2022-12-13T10:53:26.655Z,1009.37
2022-12-13T10:54:25.006Z,1009.35
2022-12-13T10:55:24.974Z,1009.27
2022-12-13T10:56:24.424Z,1009.35
2022-12-13T10:57:24.880Z,1009.34
2022-12-13T10:58:24.395Z,1009.27
2022-12-13T10:59:24.402Z,1009.26
2022-12-13T11:00:24.386Z,1009.30
2022-12-13T11:01:24.596Z,1009.22
2022-12-13T11:02:24.438Z,1009.21
2022-12-13T11:03:25.373Z,1009.23
2022-12-13T11:04:27.912Z,1009.22
2022-12-13T11:05:25.111Z,1009.21
2022-12-13T11:06:24.414Z,1009.13
2022-12-13T11:07:25.240Z,1009.09
2022-12-13T11:08:24.823Z,1009.15
2022-12-13T11:09:24.594Z,1009.12
2022-12-13T11:10:27.417Z,1009.14
2022-12-13T11:11:24.865Z,1009.23
2022-12-13T11:12:24.217Z,1009.17
2022-12-13T11:13:24.520Z,1009.18
2022-12-13T11:14:31.710Z,1009.21
2022-12-13T11:15:25.298Z,1009.17
2022-12-13T11:16:24.276Z,1009.13
2022-12-13T11:17:24.187Z,1009.13
2022-12-13T11:18:24.759Z,1009.14
2022-12-13T11:19:25.382Z,1009.09
2022-12-13T11:20:24.136Z,1009.09
2022-12-13T11:21:24.727Z,1009.09
2022-12-13T11:22:24.192Z,1009.12
2022-12-13T11:23:24.108Z,1009.11
2022-12-13T11:24:24.292Z,1009.19
2022-12-13T11:25:24.142Z,1009.07
2022-12-13T11:26:24.898Z,1009.13
2022-12-13T11:27:24.180Z,1009.06
2022-12-13T11:28:37.610Z,1009.08
2022-12-13T11:29:25.108Z,1009.07
2022-12-13T11:30:24.519Z,1009.01
2022-12-13T11:31:24.215Z,1008.96
2022-12-13T11:32:24.179Z,1008.96
2022-12-13T11:33:23.968Z,1008.97
2022-12-13T11:34:23.947Z,1008.91
2022-12-13T11:35:24.911Z,1008.94
2022-12-13T11:36:24.173Z,1008.88
2022-12-13T11:37:23.891Z,1008.91
2022-12-13T11:38:24.563Z,1008.95
2022-12-13T11:39:24.080Z,1008.90
2022-12-13T11:40:24.109Z,1008.78
2022-12-13T11:41:31.770Z,1008.74
2022-12-13T11:42:24.881Z,1008.76
2022-12-13T11:43:23.841Z,1008.73
2022-12-13T11:44:23.870Z,1008.85
2022-12-13T11:45:23.911Z,1008.76
2022-12-13T11:46:23.963Z,1008.78
2022-12-13T11:47:23.944Z,1008.79
2022-12-13T11:48:24.178Z,1008.77
2022-12-13T11:49:23.992Z,1008.70
2022-12-13T11:50:33.233Z,1008.77
2022-12-13T11:51:26.105Z,1008.75
2022-12-13T11:52:23.718Z,1008.69
2022-12-13T11:53:25.952Z,1008.73
2022-12-13T11:54:24.341Z,1008.75
2022-12-13T11:55:23.838Z,1008.66
2022-12-13T11:56:23.750Z,1008.75
2022-12-13T11:57:23.832Z,1008.73
2022-12-13T11:58:53.932Z,1008.74
2022-12-13T11:59:27.227Z,1008.62
2022-12-13T12:00:34.060Z,1008.67
2022-12-13T12:01:27.061Z,1008.61
2022-12-13T12:02:23.822Z,1008.67
2022-12-13T12:03:24.267Z,1008.59
2022-12-13T12:04:23.819Z,1008.61
2022-12-13T12:05:24.147Z,1008.48
2022-12-13T12:06:23.536Z,1008.48